Flight Track Log - Related Links

Times and Time Zones

All times are in EDT time to prevent confusion due to time zone crossing. See the EGF2592 flight status page for this flight to view local times or setup timezone preferences in your user account.

Time Position Orientation Groundspeed Altitude Reporting Facility
EDT Latitude Longitude Course Direction KTS MPH feet Rate Location/Type
Wed 01:28:00 PM 32.4785 -94.0345 280° West  Level Estimated
Wed 01:29:00 PM 32.4891 -94.1042 280° West  Level Estimated
Wed 01:30:00 PM 32.4996 -94.1739 280° West  Level Estimated
Wed 01:31:00 PM 32.5101 -94.2436 280° West  Level Estimated
Wed 01:32:00 PM 32.5205 -94.3133 280° West  Level Estimated
Wed 01:33:00 PM 32.5309 -94.3831 280° West  Level Estimated
Wed 01:34:00 PM 32.5413 -94.4529 280° West  Level Estimated
Wed 01:35:00 PM 32.5516 -94.5226 280° West  Level Estimated
Wed 01:36:00 PM 32.5619 -94.5924 280° West  Level Estimated
Wed 01:37:00 PM 32.5722 -94.6622 280° West  Level Estimated
Wed 01:38:00 PM 32.5824 -94.7320 280° West  Level Estimated
Wed 01:39:00 PM 32.5926 -94.8019 280° West  Level Estimated
Wed 01:40:00 PM 32.6027 -94.8717 280° West  Level Estimated
Wed 01:41:00 PM 32.6128 -94.9416 280° West  Level Estimated
Wed 01:42:00 PM 32.6229 -95.0115 280° West  Level Estimated
Wed 01:43:00 PM 32.6329 -95.0814 280° West  Level Estimated
Wed 01:44:00 PM 32.6429 -95.1513 280° West  Level Estimated
Wed 01:45:00 PM 32.6528 -95.2212 280° West  Level Estimated
Wed 01:46:00 PM 32.6627 -95.2912 280° West  Level Estimated
Wed 01:47:00 PM 32.6726 -95.3611 280° West  Level Estimated
Wed 01:48:00 PM 32.6824 -95.4311 279° West  Level Estimated
Wed 01:49:00 PM 32.6922 -95.5011 279° West  Level Estimated
Wed 01:50:00 PM 32.7020 -95.5711 279° West  Level Estimated
Wed 01:51:00 PM 32.7117 -95.6411 279° West  Level Estimated
Wed 01:52:00 PM 32.7213 -95.7112 279° West  Level Estimated
Wed 01:53:00 PM 32.7310 -95.7812 279° West  Level Estimated
Wed 01:54:00 PM 32.7406 -95.8513 279° West  Level Estimated
Wed 01:55:00 PM 32.7501 -95.9214 279° West  Level Estimated
Wed 01:56:00 PM 32.7596 -95.9915 279° West  Level Estimated
Wed 01:57:00 PM 32.7691 -96.0616 279° West  Level Estimated
Wed 01:58:00 PM 32.7786 -96.1317 279° West  Level Estimated
Wed 01:59:00 PM 32.7880 -96.2019 279° West  Level Estimated
Wed 02:00:00 PM 32.7973 -96.2720 279° West  Level Estimated
Wed 02:01:00 PM 32.8066 -96.3422 279° West  Level Estimated
Wed 02:02:00 PM 32.8159 -96.4124 279° West  Level Estimated
Wed 02:03:00 PM 32.8252 -96.4826 279° West  Level Estimated
Wed 02:04:00 PM 32.8344 -96.5528 279° West  Level Estimated
Wed 02:05:00 PM 32.8435 -96.6230 279° West  Level Estimated

Login

Don't have an account? Register now (free) for customized features, flight alerts, and more!